createdAt,value
2017-12-29T00:01:07.393Z,5.78
2017-12-29T00:03:36.231Z,5.70
2017-12-29T00:06:04.648Z,6.20
2017-12-29T00:08:32.773Z,5.87
2017-12-29T00:11:00.938Z,6.10
2017-12-29T00:13:28.931Z,4.72
2017-12-29T00:15:57.379Z,4.80
2017-12-29T00:18:25.657Z,5.72
2017-12-29T00:20:53.874Z,4.85
2017-12-29T00:23:22.357Z,5.43
2017-12-29T00:25:50.629Z,4.60
2017-12-29T00:28:18.983Z,4.60
2017-12-29T00:30:47.237Z,5.10
2017-12-29T00:33:15.535Z,5.15
2017-12-29T00:35:43.842Z,4.45
2017-12-29T00:38:12.139Z,5.68
2017-12-29T00:40:40.475Z,4.47
2017-12-29T00:43:08.758Z,4.70
2017-12-29T00:45:36.917Z,4.70
2017-12-29T00:48:05.216Z,4.85
2017-12-29T00:50:33.687Z,5.20
2017-12-29T00:53:01.911Z,4.47
2017-12-29T00:55:30.894Z,5.15
2017-12-29T00:57:59.238Z,4.90
2017-12-29T01:00:27.556Z,5.28
2017-12-29T01:02:55.846Z,4.60
2017-12-29T01:05:24.917Z,4.75
2017-12-29T01:07:53.221Z,5.28
2017-12-29T01:10:21.969Z,4.80
2017-12-29T01:12:49.939Z,4.45
2017-12-29T01:15:17.907Z,4.28
2017-12-29T01:17:45.909Z,4.70
2017-12-29T01:20:14.658Z,3.62
2017-12-29T01:22:42.635Z,3.37
2017-12-29T01:25:10.594Z,3.47
2017-12-29T01:27:38.570Z,3.60
2017-12-29T01:30:06.561Z,2.97
2017-12-29T01:32:34.543Z,3.90
2017-12-29T01:35:03.294Z,3.12
2017-12-29T01:37:31.253Z,3.20
2017-12-29T01:39:59.219Z,2.70
2017-12-29T01:42:27.260Z,4.68
2017-12-29T01:44:55.231Z,3.30
2017-12-29T01:47:23.237Z,2.50
2017-12-29T01:49:51.226Z,3.22
2017-12-29T01:52:19.226Z,2.95
2017-12-29T01:54:47.986Z,3.22
2017-12-29T01:57:16.019Z,3.47
2017-12-29T01:59:43.999Z,2.92
2017-12-29T02:02:12.007Z,2.05
2017-12-29T02:04:40.070Z,3.12
2017-12-29T02:07:08.051Z,2.97
2017-12-29T02:09:36.821Z,2.95
2017-12-29T02:12:04.806Z,3.37
2017-12-29T02:14:32.797Z,3.60
2017-12-29T02:17:01.530Z,3.10
2017-12-29T02:19:29.510Z,3.40
2017-12-29T02:21:58.605Z,3.00
2017-12-29T02:24:26.621Z,2.83
2017-12-29T02:26:55.373Z,2.80
2017-12-29T02:29:23.343Z,2.45
2017-12-29T02:31:51.334Z,2.72
2017-12-29T02:34:20.065Z,2.90
2017-12-29T02:36:48.057Z,3.58
2017-12-29T02:39:16.288Z,2.90
2017-12-29T02:41:44.299Z,2.42
2017-12-29T02:44:12.283Z,2.45
2017-12-29T02:46:40.342Z,3.00
2017-12-29T02:49:08.335Z,3.00
2017-12-29T02:51:36.335Z,2.10
2017-12-29T02:54:04.575Z,3.22
2017-12-29T02:56:32.933Z,2.65
2017-12-29T02:59:01.028Z,2.20
2017-12-29T03:01:29.006Z,2.10
2017-12-29T03:03:57.085Z,2.58
2017-12-29T03:06:26.032Z,3.75
2017-12-29T03:08:53.984Z,2.30
2017-12-29T03:11:21.963Z,2.22
2017-12-29T03:13:49.985Z,2.40
2017-12-29T03:16:18.740Z,2.85
2017-12-29T03:18:46.711Z,2.90
2017-12-29T03:21:15.578Z,2.47
2017-12-29T03:23:43.545Z,2.75
2017-12-29T03:26:11.578Z,2.03
2017-12-29T03:28:40.344Z,2.03
2017-12-29T03:31:08.371Z,2.00
2017-12-29T03:33:36.399Z,2.35
2017-12-29T03:36:04.367Z,2.05
2017-12-29T03:38:32.381Z,2.15
2017-12-29T03:41:00.351Z,2.03
2017-12-29T03:43:28.363Z,2.35
2017-12-29T03:45:56.345Z,2.58
2017-12-29T03:48:24.643Z,2.60
2017-12-29T03:50:53.401Z,1.98
2017-12-29T03:53:21.626Z,2.25
2017-12-29T03:55:49.627Z,2.33
2017-12-29T03:58:18.437Z,2.05
2017-12-29T04:00:46.465Z,2.85
2017-12-29T04:03:14.446Z,2.40
2017-12-29T04:05:42.469Z,2.85
2017-12-29T04:08:11.325Z,2.45
2017-12-29T04:10:39.299Z,2.45
2017-12-29T04:13:07.336Z,2.10
2017-12-29T04:15:35.347Z,2.53
2017-12-29T04:18:03.368Z,2.70
2017-12-29T04:20:31.351Z,2.83
2017-12-29T04:22:59.334Z,2.78
2017-12-29T04:25:27.314Z,2.50
2017-12-29T04:27:55.315Z,2.47
2017-12-29T04:30:24.062Z,2.45
2017-12-29T04:32:52.068Z,2.92
2017-12-29T04:35:20.402Z,2.50
2017-12-29T04:37:48.381Z,2.40
2017-12-29T04:40:16.258Z,2.30
2017-12-29T04:42:44.253Z,2.60
2017-12-29T04:45:12.501Z,2.80
2017-12-29T04:47:40.498Z,2.33
2017-12-29T04:50:09.272Z,2.25
2017-12-29T04:52:37.313Z,2.25
2017-12-29T04:55:05.280Z,2.35
2017-12-29T04:57:33.486Z,2.08
2017-12-29T05:00:01.705Z,2.05
2017-12-29T05:02:29.729Z,2.03
2017-12-29T05:04:57.977Z,1.62
2017-12-29T05:07:26.155Z,2.00
2017-12-29T05:09:54.180Z,2.03
2017-12-29T05:12:22.958Z,2.08
2017-12-29T05:14:51.931Z,2.65
2017-12-29T05:17:19.935Z,2.50
2017-12-29T05:19:48.724Z,2.15
2017-12-29T05:22:17.474Z,2.03
2017-12-29T05:24:45.472Z,1.80
2017-12-29T05:27:14.210Z,1.83
2017-12-29T05:29:42.178Z,2.47
2017-12-29T05:32:10.205Z,1.92
2017-12-29T05:34:38.945Z,2.20
2017-12-29T05:37:07.143Z,2.58
2017-12-29T05:39:35.346Z,2.60
2017-12-29T05:42:04.098Z,2.20
2017-12-29T05:44:32.081Z,1.92
2017-12-29T05:47:00.083Z,1.75
2017-12-29T05:49:28.058Z,1.70
2017-12-29T05:51:56.053Z,1.98
2017-12-29T05:54:24.015Z,1.67
2017-12-29T05:56:52.007Z,2.30
2017-12-29T05:59:19.967Z,2.70
2017-12-29T06:01:47.949Z,2.28
2017-12-29T06:04:15.971Z,2.22
2017-12-29T06:06:43.951Z,2.10
2017-12-29T06:09:11.922Z,1.90
2017-12-29T06:11:39.863Z,2.10
2017-12-29T06:14:08.613Z,2.55
2017-12-29T06:16:36.629Z,1.98
2017-12-29T06:19:05.586Z,2.10
2017-12-29T06:21:33.611Z,2.40
2017-12-29T06:24:01.598Z,2.40
2017-12-29T06:26:29.567Z,2.50
2017-12-29T06:28:57.754Z,2.20
2017-12-29T06:31:25.978Z,3.92
2017-12-29T06:33:54.942Z,2.80
2017-12-29T06:36:22.911Z,2.50
2017-12-29T06:38:50.882Z,2.87
2017-12-29T06:41:18.879Z,2.40
2017-12-29T06:43:47.652Z,2.45
2017-12-29T06:46:16.642Z,3.08
2017-12-29T06:48:44.641Z,3.15
2017-12-29T06:51:12.715Z,3.37
2017-12-29T06:53:40.695Z,2.97
2017-12-29T06:56:08.658Z,2.55
2017-12-29T06:58:36.633Z,3.55
2017-12-29T07:01:04.765Z,4.65
2017-12-29T07:03:32.988Z,3.33
2017-12-29T07:06:01.266Z,3.22
2017-12-29T07:08:29.702Z,4.57
2017-12-29T07:10:57.682Z,3.92
2017-12-29T07:13:26.437Z,4.45
2017-12-29T07:15:54.430Z,2.80
2017-12-29T07:18:22.414Z,3.67
2017-12-29T07:20:51.162Z,4.07
2017-12-29T07:23:19.179Z,3.55
2017-12-29T07:25:47.934Z,3.30
2017-12-29T07:28:15.926Z,3.50
2017-12-29T07:30:44.661Z,3.95
2017-12-29T07:33:12.655Z,3.72
2017-12-29T07:35:40.669Z,4.10
2017-12-29T07:38:08.654Z,4.10
2017-12-29T07:40:36.621Z,3.53
2017-12-29T07:43:04.607Z,3.42
2017-12-29T07:45:32.566Z,4.28
2017-12-29T07:48:00.602Z,4.57
2017-12-29T07:50:29.327Z,3.65
2017-12-29T07:52:57.313Z,4.03
2017-12-29T07:55:25.300Z,4.10
2017-12-29T07:57:53.294Z,4.12
2017-12-29T08:00:22.081Z,4.68
2017-12-29T08:02:50.816Z,3.70
2017-12-29T08:05:18.809Z,6.50
2017-12-29T08:07:46.774Z,4.68
2017-12-29T08:10:14.770Z,4.93
2017-12-29T08:12:42.794Z,5.15
2017-12-29T08:15:10.775Z,4.68
2017-12-29T08:17:38.767Z,5.03
2017-12-29T08:20:06.739Z,4.97
2017-12-29T08:22:34.729Z,4.18
2017-12-29T08:25:03.538Z,4.97
2017-12-29T08:27:31.585Z,5.90
2017-12-29T08:30:00.326Z,4.60
2017-12-29T08:32:28.353Z,4.40
2017-12-29T08:34:57.130Z,4.03
2017-12-29T08:37:25.929Z,3.97
2017-12-29T08:39:54.691Z,4.25
2017-12-29T08:42:22.693Z,3.80
2017-12-29T08:44:53.150Z,3.17
2017-12-29T08:47:21.947Z,2.80
2017-12-29T08:49:50.034Z,2.90
2017-12-29T08:52:18.043Z,2.70
2017-12-29T08:54:46.810Z,3.20
2017-12-29T08:57:14.790Z,2.87
2017-12-29T08:59:43.421Z,3.10
2017-12-29T09:02:11.388Z,2.73
2017-12-29T09:04:39.377Z,2.53
2017-12-29T09:07:07.386Z,2.87
2017-12-29T09:09:35.365Z,2.90
2017-12-29T09:12:04.671Z,2.20
2017-12-29T09:14:34.985Z,2.07
2017-12-29T09:17:02.958Z,1.90
2017-12-29T09:19:31.698Z,2.57
2017-12-29T09:21:59.722Z,2.13
2017-12-29T09:24:28.522Z,2.00
2017-12-29T09:26:57.277Z,2.03
2017-12-29T09:29:25.265Z,1.73
2017-12-29T09:31:54.042Z,2.33
2017-12-29T09:34:22.008Z,2.23
2017-12-29T09:36:50.016Z,2.17
2017-12-29T09:39:17.990Z,2.00
2017-12-29T09:41:45.958Z,1.70
2017-12-29T09:44:13.969Z,1.80
2017-12-29T09:46:41.971Z,2.40
2017-12-29T09:49:10.730Z,2.33
2017-12-29T09:51:38.729Z,2.27
2017-12-29T09:54:07.486Z,2.53
2017-12-29T09:56:35.529Z,2.10
2017-12-29T09:59:03.519Z,2.13
2017-12-29T10:01:31.502Z,2.30
2017-12-29T10:03:59.471Z,2.27
2017-12-29T10:06:27.434Z,2.17
2017-12-29T10:08:55.459Z,2.23
2017-12-29T10:11:23.446Z,1.97
2017-12-29T10:13:51.436Z,1.80
2017-12-29T10:16:19.462Z,2.07
2017-12-29T10:18:48.248Z,1.80
2017-12-29T10:21:17.030Z,2.27
2017-12-29T10:23:45.793Z,2.03
2017-12-29T10:26:13.770Z,5.40
2017-12-29T10:28:41.744Z,3.87
2017-12-29T10:31:10.498Z,1.60
2017-12-29T10:33:38.509Z,1.73
2017-12-29T10:36:07.267Z,1.70
2017-12-29T10:38:35.234Z,1.50
2017-12-29T10:41:03.227Z,1.67
2017-12-29T10:43:31.213Z,1.70
2017-12-29T10:45:59.966Z,1.83
2017-12-29T10:48:27.976Z,1.50
2017-12-29T10:50:56.725Z,1.87
2017-12-29T10:53:24.711Z,1.70
2017-12-29T10:55:52.687Z,1.80
2017-12-29T10:58:20.714Z,1.90
2017-12-29T11:00:48.751Z,2.00
2017-12-29T11:03:16.757Z,1.83
2017-12-29T11:05:44.718Z,1.50
2017-12-29T11:08:12.709Z,2.10
2017-12-29T11:10:40.700Z,1.53
2017-12-29T11:13:08.654Z,1.80
2017-12-29T11:15:36.936Z,1.90
2017-12-29T11:18:04.961Z,1.70
2017-12-29T11:20:32.909Z,2.00
2017-12-29T11:23:01.690Z,1.53
2017-12-29T11:25:30.445Z,1.60
2017-12-29T11:27:58.404Z,1.43
2017-12-29T11:30:26.378Z,1.40
2017-12-29T11:32:54.389Z,1.70
2017-12-29T11:35:23.155Z,1.70
2017-12-29T11:37:51.235Z,1.50
2017-12-29T11:40:19.222Z,1.90
2017-12-29T11:42:48.016Z,1.20
2017-12-29T11:45:16.778Z,1.80
2017-12-29T11:47:44.766Z,1.60
2017-12-29T11:50:13.516Z,1.90
2017-12-29T11:52:41.526Z,1.57
2017-12-29T11:55:10.285Z,1.70
2017-12-29T11:57:38.252Z,1.53
2017-12-29T12:00:06.274Z,2.37
2017-12-29T12:02:34.261Z,1.73
2017-12-29T12:05:02.266Z,1.70
2017-12-29T12:07:30.256Z,1.90
2017-12-29T12:09:58.998Z,2.67
2017-12-29T12:12:26.989Z,1.57
2017-12-29T12:14:55.005Z,1.53
2017-12-29T12:17:23.817Z,1.57
2017-12-29T12:19:51.847Z,1.50
2017-12-29T12:22:20.590Z,1.70
2017-12-29T12:24:48.589Z,2.00
2017-12-29T12:27:16.574Z,1.57
2017-12-29T12:29:45.334Z,1.30
2017-12-29T12:32:13.327Z,2.37
2017-12-29T12:34:42.058Z,2.03
2017-12-29T12:37:10.057Z,2.00
2017-12-29T12:39:38.046Z,1.90
2017-12-29T12:42:06.015Z,1.90
2017-12-29T12:44:34.000Z,2.07
2017-12-29T12:47:02.742Z,2.03
2017-12-29T12:49:30.719Z,2.00
2017-12-29T12:51:58.725Z,1.60
2017-12-29T12:54:27.497Z,1.90
2017-12-29T12:56:55.474Z,1.70
2017-12-29T12:59:23.445Z,1.87
2017-12-29T13:01:52.194Z,2.10
2017-12-29T13:04:20.161Z,1.83
2017-12-29T13:06:48.130Z,2.40
2017-12-29T13:09:16.149Z,1.80
2017-12-29T13:11:44.923Z,1.93
2017-12-29T13:14:13.709Z,2.00
2017-12-29T13:16:41.690Z,2.07
2017-12-29T13:19:10.451Z,1.93
2017-12-29T13:21:38.430Z,2.80
2017-12-29T13:24:06.521Z,2.30
2017-12-29T13:26:35.334Z,2.23
2017-12-29T13:29:03.337Z,2.10
2017-12-29T13:31:31.328Z,1.90
2017-12-29T13:33:59.307Z,2.20
2017-12-29T13:36:27.317Z,2.43
2017-12-29T13:38:55.433Z,1.77
2017-12-29T13:41:23.447Z,1.80
2017-12-29T13:43:52.213Z,2.80
2017-12-29T13:46:20.240Z,1.87
2017-12-29T13:48:48.236Z,2.57
2017-12-29T13:51:16.257Z,2.43
2017-12-29T13:53:44.266Z,2.00
2017-12-29T13:56:12.262Z,2.30
2017-12-29T13:58:40.266Z,2.87
2017-12-29T14:01:08.264Z,2.10
2017-12-29T14:03:36.305Z,1.80
2017-12-29T14:06:04.290Z,2.20
2017-12-29T14:08:32.276Z,2.47
2017-12-29T14:11:00.280Z,1.53
2017-12-29T14:13:28.265Z,1.83
2017-12-29T14:15:57.054Z,1.93
2017-12-29T14:18:25.781Z,1.87
2017-12-29T14:20:53.754Z,1.87
2017-12-29T14:23:21.720Z,2.30
2017-12-29T14:25:49.707Z,3.23
2017-12-29T14:28:17.758Z,1.80
2017-12-29T14:30:45.753Z,2.20
2017-12-29T14:33:13.731Z,2.63
2017-12-29T14:35:41.737Z,1.83
2017-12-29T14:38:10.511Z,2.00
2017-12-29T14:40:38.509Z,2.33
2017-12-29T14:43:06.498Z,5.20
2017-12-29T14:45:34.479Z,4.40
2017-12-29T14:48:02.486Z,4.03
2017-12-29T14:50:30.447Z,3.07
2017-12-29T14:52:58.446Z,3.70
2017-12-29T14:55:27.189Z,4.90
2017-12-29T14:57:55.207Z,3.43
2017-12-29T15:00:23.217Z,4.00
2017-12-29T15:02:51.201Z,3.87
2017-12-29T15:05:19.192Z,4.50
2017-12-29T15:07:47.167Z,3.43
2017-12-29T15:10:15.160Z,22.90
2017-12-29T15:12:43.215Z,14.70
2017-12-29T15:15:12.005Z,6.17
2017-12-29T15:17:40.747Z,36.20
2017-12-29T15:20:08.735Z,22.00
2017-12-29T15:22:36.716Z,6.77
2017-12-29T15:25:04.711Z,25.80
2017-12-29T15:27:33.459Z,18.43
2017-12-29T15:30:01.463Z,12.40
2017-12-29T15:32:30.258Z,8.17
2017-12-29T15:34:59.030Z,7.80
2017-12-29T15:37:27.799Z,7.70
2017-12-29T15:39:55.819Z,7.47
2017-12-29T15:42:23.794Z,7.30
2017-12-29T15:44:51.804Z,6.73
2017-12-29T15:47:19.817Z,5.77
2017-12-29T15:49:47.748Z,6.30
2017-12-29T15:52:15.775Z,4.40
2017-12-29T15:54:43.782Z,4.60
2017-12-29T15:57:11.774Z,4.67
2017-12-29T15:59:39.795Z,5.50
2017-12-29T16:02:09.702Z,5.03
2017-12-29T16:04:37.671Z,5.53
2017-12-29T16:07:05.816Z,5.00
2017-12-29T16:09:34.602Z,5.13
2017-12-29T16:12:03.365Z,4.60
2017-12-29T16:14:31.364Z,5.17
2017-12-29T16:17:00.110Z,4.80
2017-12-29T16:19:28.075Z,4.73
2017-12-29T16:21:56.886Z,4.60
2017-12-29T16:24:24.855Z,4.97
2017-12-29T16:26:52.891Z,5.13
2017-12-29T16:29:20.880Z,6.20
2017-12-29T16:31:48.901Z,6.93
2017-12-29T16:34:16.962Z,7.73
2017-12-29T16:36:45.734Z,7.60
2017-12-29T16:39:13.722Z,6.63
2017-12-29T16:41:42.483Z,7.73
2017-12-29T16:44:10.470Z,7.70
2017-12-29T16:46:39.552Z,8.37
2017-12-29T16:49:07.653Z,7.20
2017-12-29T16:51:35.670Z,8.10
2017-12-29T16:54:03.687Z,8.00
2017-12-29T16:56:32.489Z,8.27
2017-12-29T16:59:00.478Z,8.50
2017-12-29T17:01:28.479Z,7.40
2017-12-29T17:03:56.503Z,8.13
2017-12-29T17:06:24.509Z,8.30
2017-12-29T17:08:52.523Z,7.47
2017-12-29T17:11:21.274Z,7.93
2017-12-29T17:13:49.293Z,8.23
2017-12-29T17:16:17.339Z,7.07
2017-12-29T17:18:45.406Z,8.10
2017-12-29T17:21:13.481Z,6.70
2017-12-29T17:23:41.472Z,5.80
2017-12-29T17:26:10.265Z,5.87
2017-12-29T17:28:38.277Z,5.40
2017-12-29T17:31:06.321Z,6.63
2017-12-29T17:33:34.341Z,5.67
2017-12-29T17:36:02.372Z,5.20
2017-12-29T17:38:30.383Z,6.13
2017-12-29T17:40:58.385Z,5.90
2017-12-29T17:43:27.198Z,5.83
2017-12-29T17:45:55.246Z,6.00
2017-12-29T17:48:24.025Z,4.80
2017-12-29T17:50:52.786Z,6.37
2017-12-29T17:53:20.758Z,6.40
2017-12-29T17:55:48.785Z,5.93
2017-12-29T17:58:16.742Z,5.13
2017-12-29T18:00:44.781Z,4.60
2017-12-29T18:03:12.850Z,4.90
2017-12-29T18:05:40.837Z,6.00
2017-12-29T18:08:09.611Z,5.70
2017-12-29T18:10:37.607Z,5.60
2017-12-29T18:13:05.601Z,6.33
2017-12-29T18:15:33.631Z,5.55
2017-12-29T18:18:02.397Z,8.17
2017-12-29T18:20:30.389Z,6.73
2017-12-29T18:22:59.160Z,7.00
2017-12-29T18:25:27.149Z,6.70
2017-12-29T18:27:55.890Z,6.97
2017-12-29T18:30:23.909Z,6.20
2017-12-29T18:32:52.702Z,6.10
2017-12-29T18:35:20.711Z,6.23
2017-12-29T18:37:48.742Z,6.93
2017-12-29T18:40:17.477Z,7.20
2017-12-29T18:42:46.730Z,6.60
2017-12-29T18:45:15.481Z,7.30
2017-12-29T18:47:43.510Z,7.60
2017-12-29T18:50:11.753Z,8.20
2017-12-29T18:52:40.518Z,8.35
2017-12-29T18:55:08.667Z,7.53
2017-12-29T18:57:36.674Z,7.05
2017-12-29T19:00:05.485Z,7.00
2017-12-29T19:02:34.517Z,7.35
2017-12-29T19:05:02.519Z,6.95
2017-12-29T19:07:30.526Z,9.15
2017-12-29T19:09:58.670Z,7.57
2017-12-29T19:12:26.665Z,7.68
2017-12-29T19:14:55.474Z,7.00
2017-12-29T19:17:24.122Z,7.32
2017-12-29T19:19:52.118Z,6.68
2017-12-29T19:22:20.124Z,6.57
2017-12-29T19:24:48.111Z,12.07
2017-12-29T19:27:16.186Z,17.95
2017-12-29T19:29:44.164Z,10.50
2017-12-29T19:32:12.132Z,7.03
2017-12-29T19:34:41.027Z,6.68
2017-12-29T19:37:09.064Z,8.43
2017-12-29T19:39:37.051Z,7.60
2017-12-29T19:42:05.163Z,7.03
2017-12-29T19:44:33.957Z,9.30
2017-12-29T19:47:02.249Z,8.73
2017-12-29T19:49:31.529Z,8.55
2017-12-29T19:51:59.582Z,8.38
2017-12-29T19:54:27.590Z,9.82
2017-12-29T19:56:55.945Z,8.88
2017-12-29T19:59:24.698Z,8.85
2017-12-29T20:01:53.674Z,8.35
2017-12-29T20:04:22.670Z,7.80
2017-12-29T20:06:50.654Z,8.80
2017-12-29T20:09:18.647Z,7.60
2017-12-29T20:11:46.634Z,7.37
2017-12-29T20:14:14.634Z,8.40
2017-12-29T20:16:42.679Z,7.22
2017-12-29T20:19:10.702Z,7.07
2017-12-29T20:21:38.750Z,6.03
2017-12-29T20:24:06.732Z,6.15
2017-12-29T20:26:34.734Z,7.12
2017-12-29T20:29:02.807Z,8.20
2017-12-29T20:31:30.813Z,6.25
2017-12-29T20:33:58.791Z,11.18
2017-12-29T20:36:27.420Z,10.80
2017-12-29T20:38:55.409Z,10.02
2017-12-29T20:41:24.166Z,8.27
2017-12-29T20:43:52.151Z,6.43
2017-12-29T20:46:20.132Z,8.00
2017-12-29T20:48:48.953Z,10.15
2017-12-29T20:51:16.952Z,11.30
2017-12-29T20:53:44.895Z,9.43
2017-12-29T20:56:12.882Z,9.40
2017-12-29T20:58:40.845Z,7.55
2017-12-29T21:01:08.860Z,7.80
2017-12-29T21:03:36.829Z,7.95
2017-12-29T21:06:04.801Z,7.80
2017-12-29T21:08:32.804Z,11.38
2017-12-29T21:11:00.789Z,9.50
2017-12-29T21:13:28.798Z,8.60
2017-12-29T21:15:56.837Z,8.80
2017-12-29T21:18:24.851Z,7.50
2017-12-29T21:20:52.842Z,7.10
2017-12-29T21:23:23.565Z,8.52
2017-12-29T21:25:51.641Z,8.20
2017-12-29T21:28:20.380Z,11.27
2017-12-29T21:30:48.355Z,11.27
2017-12-29T21:33:16.322Z,7.95
2017-12-29T21:35:45.163Z,14.93
2017-12-29T21:38:13.934Z,8.98
2017-12-29T21:40:41.937Z,9.40
2017-12-29T21:43:09.925Z,7.72
2017-12-29T21:45:37.910Z,8.52
2017-12-29T21:48:05.885Z,7.80
2017-12-29T21:50:33.880Z,9.00
2017-12-29T21:53:01.867Z,11.82
2017-12-29T21:55:30.599Z,9.10
2017-12-29T21:57:58.592Z,8.48
2017-12-29T22:00:26.591Z,7.50
2017-12-29T22:02:55.349Z,8.68
2017-12-29T22:05:23.336Z,8.55
2017-12-29T22:07:51.343Z,8.75
2017-12-29T22:10:19.343Z,10.43
2017-12-29T22:12:47.366Z,9.52
2017-12-29T22:15:16.137Z,9.98
2017-12-29T22:17:44.141Z,13.40
2017-12-29T22:20:12.118Z,15.27
2017-12-29T22:22:40.117Z,16.87
2017-12-29T22:25:08.082Z,10.52
2017-12-29T22:27:36.099Z,10.68
2017-12-29T22:30:04.858Z,12.93
2017-12-29T22:32:32.869Z,10.05
2017-12-29T22:35:01.625Z,9.35
2017-12-29T22:37:29.626Z,9.13
2017-12-29T22:39:58.401Z,9.70
2017-12-29T22:42:27.165Z,21.37
2017-12-29T22:44:55.189Z,16.27
2017-12-29T22:47:23.188Z,12.60
2017-12-29T22:49:51.190Z,9.90
2017-12-29T22:52:19.203Z,9.82
2017-12-29T22:54:47.162Z,9.07
2017-12-29T22:57:15.152Z,7.93
2017-12-29T22:59:43.127Z,8.20
2017-12-29T23:02:11.122Z,7.97
2017-12-29T23:04:39.158Z,8.63
2017-12-29T23:07:07.145Z,8.80
2017-12-29T23:09:35.122Z,8.35
2017-12-29T23:12:03.142Z,9.23
2017-12-29T23:14:31.921Z,10.55
2017-12-29T23:17:00.655Z,8.27
2017-12-29T23:19:28.623Z,10.40
2017-12-29T23:21:56.653Z,9.65
2017-12-29T23:24:25.445Z,8.20
2017-12-29T23:26:54.245Z,9.40
2017-12-29T23:29:23.166Z,8.07
2017-12-29T23:31:51.156Z,10.48
2017-12-29T23:34:19.127Z,8.93
2017-12-29T23:36:47.129Z,9.20
2017-12-29T23:39:15.910Z,10.32
2017-12-29T23:41:44.737Z,9.05
2017-12-29T23:44:12.727Z,9.40
2017-12-29T23:46:40.718Z,9.07
2017-12-29T23:49:08.687Z,8.18
2017-12-29T23:51:36.646Z,9.00
2017-12-29T23:54:04.702Z,8.85
2017-12-29T23:56:32.628Z,9.38
2017-12-29T23:59:01.371Z,8.45
